Time;durP1;ratioP1;P1;durP2;ratioP2;P2;SDS_P1;SDS_P2;PMS_P1;PMS_P2;Temp;Humidity;BMP_temperature;BMP_pressure;BME280_temperature;BME280_humidity;BME280_pressure;Samples;Min_cycle;Max_cycle;Signal;HPM_P1;HPM_P2
2023/04/25 00:01:13;;;;;;;;;;;;;;;29.82;26.25;100176.97;5097211;28;1267;-34
2023/04/25 00:03:39;;;;;;;;;;;;;;;29.70;27.02;100165.94;5096922;28;1085;-32
2023/04/25 00:06:06;;;;;;;;;;;;;;;29.96;26.49;100164.19;5096462;28;1070;-34
2023/04/25 00:08:32;;;;;;;;;;;;;;;29.49;27.16;100154.34;5096927;28;1122;-35
2023/04/25 00:10:57;;;;;;;;;;;;;;;29.84;26.37;100163.19;5097675;28;1221;-34
2023/04/25 00:13:23;;;;;;;;;;;;;;;29.63;27.16;100157.03;5096349;28;1189;-33
2023/04/25 00:15:48;;;;;;;;;;;;;;;29.74;27.05;100156.38;5096520;28;1190;-36
2023/04/25 00:18:14;;;;;;;;;;;;;;;29.88;26.79;100161.72;5096562;28;1914;-35
2023/04/25 00:20:40;;;;;;;;;;;;;;;29.81;26.74;100154.44;5078661;28;1141;-37
2023/04/25 00:23:05;;;;;;;;;;;;;;;29.78;26.81;100148.63;5109051;28;1142;-35
2023/04/25 00:25:31;;;;;;;;;;;;;;;29.81;26.89;100151.72;5098951;28;1046;-38
2023/04/25 00:27:56;;;;;;;;;;;;;;;30.04;26.64;100142.25;5095964;28;1034;-36
2023/04/25 00:30:22;;;;;;;;;;;;;;;29.68;26.72;100133.66;5078102;28;1082;-36
2023/04/25 00:32:48;;;;;;;;;;;;;;;29.60;26.69;100131.19;5096423;28;1098;-34
2023/04/25 00:35:14;;;;;;;;;;;;;;;29.71;27.14;100126.97;5098432;28;1138;-37
2023/04/25 00:37:39;;;;;;;;;;;;;;;29.94;26.73;100131.88;5096435;28;1988;-35
2023/04/25 00:40:06;;;;;;;;;;;;;;;29.41;26.88;100132.91;5096459;28;1141;-31
2023/04/25 00:42:31;;;;;;;;;;;;;;;30.02;26.44;100132.63;5096214;28;1105;-30
2023/04/25 00:44:58;;;;;;;;;;;;;;;29.67;27.07;100132.00;5096674;28;1125;-34
2023/04/25 00:47:24;;;;;;;;;;;;;;;29.92;26.66;100133.97;5084696;28;1345;-34
2023/04/25 00:49:49;;;;;;;;;;;;;;;29.48;26.73;100128.28;5098751;28;1072;-35
2023/04/25 00:52:15;;;;;;;;;;;;;;;29.96;26.71;100131.66;5096248;28;1102;-32
2023/04/25 00:54:40;;;;;;;;;;;;;;;29.70;27.04;100125.28;5096509;28;1038;-37
2023/04/25 00:57:06;;;;;;;;;;;;;;;29.84;26.96;100122.53;5078024;28;1914;-32
2023/04/25 00:59:32;;;;;;;;;;;;;;;29.89;26.70;100120.84;5099484;28;1202;-33
2023/04/25 01:01:58;;;;;;;;;;;;;;;29.90;26.74;100113.50;5078518;28;1145;-35
2023/04/25 01:04:24;;;;;;;;;;;;;;;29.75;27.05;100113.81;5096153;28;1158;-34
2023/04/25 01:06:50;;;;;;;;;;;;;;;29.86;26.96;100115.00;5096176;28;1185;-30
2023/04/25 01:09:15;;;;;;;;;;;;;;;29.99;26.55;100097.81;5096268;28;1074;-35
2023/04/25 01:11:41;;;;;;;;;;;;;;;29.80;26.78;100092.28;5103388;28;1166;-30
2023/04/25 01:14:06;;;;;;;;;;;;;;;29.72;27.11;100097.97;5081139;28;1169;-34
2023/04/25 01:16:32;;;;;;;;;;;;;;;29.77;27.23;100096.28;5096028;28;1910;-36
2023/04/25 01:18:58;;;;;;;;;;;;;;;30.08;26.57;100082.13;5095769;28;1245;-35
2023/04/25 01:21:26;;;;;;;;;;;;;;;29.72;27.03;100082.56;5082089;28;1210;-35
2023/04/25 01:23:51;;;;;;;;;;;;;;;29.69;27.21;100086.53;5085290;28;1435;-35
2023/04/25 01:26:17;;;;;;;;;;;;;;;29.65;27.38;100081.75;5077754;28;1150;-32
2023/04/25 01:28:42;;;;;;;;;;;;;;;29.97;27.01;100081.78;5077744;28;1075;-38
2023/04/25 01:31:10;;;;;;;;;;;;;;;29.31;27.23;100081.88;5074482;28;1306;-37
2023/04/25 01:33:35;;;;;;;;;;;;;;;29.91;26.61;100075.34;5074395;28;1023;-34
2023/04/25 01:36:01;;;;;;;;;;;;;;;29.69;27.15;100077.56;5082885;28;1906;-33
2023/04/25 01:38:26;;;;;;;;;;;;;;;29.87;27.09;100073.28;5077137;28;1285;-36
2023/04/25 01:40:53;;;;;;;;;;;;;;;29.71;26.92;100072.78;5074293;28;1115;-38
2023/04/25 01:43:18;;;;;;;;;;;;;;;29.71;27.08;100078.19;5074489;28;1161;-35
2023/04/25 01:45:44;;;;;;;;;;;;;;;29.69;27.18;100072.16;5075817;28;1074;-32
2023/04/25 01:48:11;;;;;;;;;;;;;;;29.80;27.12;100066.03;5082639;28;1342;-33
2023/04/25 01:50:37;;;;;;;;;;;;;;;29.82;27.06;100058.50;5077588;28;1120;-34
2023/04/25 01:53:03;;;;;;;;;;;;;;;30.01;26.52;100053.16;5061310;28;1118;-38
2023/04/25 01:55:28;;;;;;;;;;;;;;;29.80;26.98;100052.47;5068539;28;1506;-34
2023/04/25 01:58:02;;;;;;;;;;;;;;;29.67;27.18;100050.69;5078851;28;1987;-36
2023/04/25 02:00:48;;;;;;;;;;;;;;;30.06;26.70;100036.25;5092230;28;1026;-34
2023/04/25 02:03:13;;;;;;;;;;;;;;;29.86;26.81;100039.94;5078999;28;1117;-38
2023/04/25 02:05:40;;;;;;;;;;;;;;;29.75;26.45;100030.59;5077646;28;1118;-35
2023/04/25 02:08:09;;;;;;;;;;;;;;;29.65;27.22;100032.97;5077758;28;1253;-34
2023/04/25 02:10:34;;;;;;;;;;;;;;;29.98;26.83;100028.38;5077342;28;1174;-36
2023/04/25 02:13:08;;;;;;;;;;;;;;;29.48;27.12;100029.91;5084113;28;1236;-32
2023/04/25 02:15:56;;;;;;;;;;;;;;;30.04;26.47;100035.63;5057491;28;1965;-34
2023/04/25 02:18:22;;;;;;;;;;;;;;;29.75;27.28;100029.78;5077602;28;1265;-36
2023/04/25 02:20:48;;;;;;;;;;;;;;;29.94;27.16;100031.53;5077029;28;1101;-34
2023/04/25 02:23:15;;;;;;;;;;;;;;;29.75;26.97;100029.78;5085902;28;1158;-35
2023/04/25 02:25:40;;;;;;;;;;;;;;;29.90;27.01;100021.31;5077654;28;1109;-32
2023/04/25 02:28:06;;;;;;;;;;;;;;;29.88;27.15;100018.03;5077298;28;1110;-32
2023/04/25 02:30:31;;;;;;;;;;;;;;;29.62;27.66;100009.00;5076709;28;1331;-34
2023/04/25 02:32:57;;;;;;;;;;;;;;;30.01;27.03;100012.47;5076918;28;1145;-36
2023/04/25 02:35:22;;;;;;;;;;;;;;;29.70;27.09;100003.31;5076819;28;1086;-33
2023/04/25 02:37:48;;;;;;;;;;;;;;;29.83;26.55;100007.81;5086182;28;1956;-33
2023/04/25 02:40:13;;;;;;;;;;;;;;;29.76;27.35;100001.63;5078482;28;1152;-33
2023/04/25 02:42:39;;;;;;;;;;;;;;;29.94;27.19;100006.28;5076926;28;1311;-33
2023/04/25 02:45:05;;;;;;;;;;;;;;;29.75;27.19;99994.53;5077057;28;1046;-35
2023/04/25 02:47:30;;;;;;;;;;;;;;;29.91;27.04;100002.13;5078093;28;1073;-36
2023/04/25 02:49:56;;;;;;;;;;;;;;;29.84;26.99;99993.22;5080303;28;943;-33
2023/04/25 02:52:21;;;;;;;;;;;;;;;29.72;27.43;99994.97;5076726;28;1288;-33
2023/04/25 02:54:54;;;;;;;;;;;;;;;30.06;26.93;99988.25;5076671;28;1364;-36
2023/04/25 02:57:20;;;;;;;;;;;;;;;29.58;26.96;99992.31;5076334;28;1909;-36
2023/04/25 02:59:45;;;;;;;;;;;;;;;29.81;27.15;99991.78;5077716;28;1134;-34
2023/04/25 03:02:11;;;;;;;;;;;;;;;29.69;27.56;99990.84;5085972;28;1089;-35
2023/04/25 03:04:36;;;;;;;;;;;;;;;29.82;27.37;99990.75;5076532;28;1087;-30
2023/04/25 03:07:02;;;;;;;;;;;;;;;29.74;27.17;99984.75;5077781;28;1090;-35
2023/04/25 03:09:27;;;;;;;;;;;;;;;30.00;26.88;99988.28;5075890;28;1225;-32
2023/04/25 03:11:53;;;;;;;;;;;;;;;29.87;27.21;99981.94;5077176;28;1122;-35
2023/04/25 03:14:19;;;;;;;;;;;;;;;29.81;27.26;99982.81;5077145;28;1257;-36
2023/04/25 03:16:45;;;;;;;;;;;;;;;30.12;27.15;99977.56;5076753;28;1906;-34
2023/04/25 03:19:11;;;;;;;;;;;;;;;29.84;27.28;99976.13;5078454;28;934;-32
2023/04/25 03:21:36;;;;;;;;;;;;;;;29.98;26.43;99974.97;5082810;28;1209;-29
2023/04/25 03:24:02;;;;;;;;;;;;;;;29.74;27.36;99976.63;5086808;28;1200;-29
2023/04/25 03:26:28;;;;;;;;;;;;;;;29.93;27.06;99969.38;5076939;28;1133;-31
2023/04/25 03:28:53;;;;;;;;;;;;;;;29.53;27.24;99973.19;5077624;28;1110;-33
2023/04/25 03:31:19;;;;;;;;;;;;;;;29.96;26.60;99968.94;5075640;28;1175;-30
2023/04/25 03:33:45;;;;;;;;;;;;;;;29.68;27.51;99978.31;5076377;28;1337;-30
2023/04/25 03:36:10;;;;;;;;;;;;;;;29.86;27.38;99976.75;5078182;28;1979;-31
2023/04/25 03:38:36;;;;;;;;;;;;;;;29.64;27.06;99974.41;5078311;28;1210;-30
2023/04/25 03:41:02;;;;;;;;;;;;;;;29.55;26.91;99966.50;5075239;28;1294;-28
2023/04/25 03:44:03;;;;;;;;;;;;;;;29.08;28.01;99966.75;5075312;28;1153;-27
2023/04/25 03:46:28;;;;;;;;;;;;;;;28.67;27.68;99939.00;5075684;28;1149;-30
2023/04/25 03:48:54;;;;;;;;;;;;;;;28.80;27.04;99973.28;5083131;28;1424;-29
2023/04/25 03:51:25;;;;;;;;;;;;;;;28.74;26.99;99972.28;5076222;28;1223;-29
2023/04/25 03:53:51;;;;;;;;;;;;;;;28.92;26.53;99968.06;5074461;28;1253;-31
2023/04/25 03:56:37;;;;;;;;;;;;;;;27.64;27.29;99959.00;5067696;28;1981;-34
2023/04/25 03:59:12;;;;;;;;;;;;;;;26.20;30.01;99961.25;5075053;28;1239;-28
2023/04/25 04:01:38;;;;;;;;;;;;;;;27.96;27.92;99966.56;5080621;28;1535;-28
2023/04/25 04:04:04;;;;;;;;;;;;;;;28.44;26.97;99961.94;5073977;28;1159;-32
2023/04/25 04:06:29;;;;;;;;;;;;;;;25.91;30.47;99961.22;5074113;28;1130;-30
2023/04/25 04:09:05;;;;;;;;;;;;;;;25.51;31.55;99958.09;5074787;28;1246;-28
2023/04/25 04:11:36;;;;;;;;;;;;;;;27.79;28.34;99960.72;5075173;28;1197;-27
2023/04/25 04:14:02;;;;;;;;;;;;;;;27.94;27.64;99965.91;5087801;28;1380;-31
2023/04/25 04:16:28;;;;;;;;;;;;;;;27.73;27.92;99955.09;5091801;28;1985;-29
2023/04/25 04:18:53;;;;;;;;;;;;;;;28.09;27.79;99958.41;5075132;28;1160;-28
2023/04/25 04:21:19;;;;;;;;;;;;;;;28.19;27.16;99960.72;5079794;28;1205;-33
2023/04/25 04:23:44;;;;;;;;;;;;;;;28.46;27.17;99957.16;5079438;28;1969;-29
2023/04/25 04:26:11;;;;;;;;;;;;;;;26.38;29.74;99951.84;5081954;28;1139;-31
2023/04/25 04:29:00;;;;;;;;;;;;;;;25.37;32.06;99944.53;5075828;28;1459;-30
2023/04/25 04:31:39;;;;;;;;;;;;;;;27.72;28.12;99950.75;5059972;28;1354;-30
2023/04/25 04:34:05;;;;;;;;;;;;;;;28.12;27.76;99951.78;5075151;28;1336;-29
2023/04/25 04:36:33;;;;;;;;;;;;;;;28.43;27.19;99953.00;5075420;28;1957;-29
2023/04/25 04:38:58;;;;;;;;;;;;;;;28.48;27.21;99952.34;5074752;28;1197;-30
2023/04/25 04:41:45;;;;;;;;;;;;;;;28.34;27.22;99951.56;5068704;28;1099;-27
2023/04/25 04:44:32;;;;;;;;;;;;;;;28.59;26.81;99954.41;5074687;28;1261;-29
2023/04/25 04:47:13;;;;;;;;;;;;;;;26.22;29.59;99950.25;5075147;28;1149;-30
2023/04/25 04:49:53;;;;;;;;;;;;;;;25.31;31.92;99940.72;5083111;28;1348;-29
2023/04/25 04:52:31;;;;;;;;;;;;;;;27.66;28.08;99948.81;5074945;28;1157;-30
2023/04/25 04:55:22;;;;;;;;;;;;;;;24.76;32.62;99951.84;5075439;28;1173;-30
2023/04/25 04:58:11;;;;;;;;;;;;;;;25.89;31.55;99949.78;5083478;28;1910;-31
2023/04/25 05:01:12;;;;;;;;;;;;;;;27.36;28.66;99935.69;5027211;28;1385;-29
2023/04/25 05:04:12;;;;;;;;;;;;;;;25.12;31.91;99939.50;5053242;28;1035;-28
2023/04/25 05:06:46;;;;;;;;;;;;;;;24.13;34.34;99944.06;5075522;28;1271;-30
2023/04/25 05:09:37;;;;;;;;;;;;;;;26.77;29.83;99944.19;5075353;28;1132;-31
2023/04/25 05:12:26;;;;;;;;;;;;;;;27.42;28.62;99939.44;5065710;28;1185;-27
2023/04/25 05:15:05;;;;;;;;;;;;;;;27.14;29.00;99943.94;5074359;28;1135;-28
2023/04/25 05:17:52;;;;;;;;;;;;;;;24.40;33.47;99939.13;5074836;28;2026;-30
2023/04/25 05:20:24;;;;;;;;;;;;;;;25.62;31.61;99937.94;5076073;28;1055;-31
2023/04/25 05:23:08;;;;;;;;;;;;;;;27.05;29.33;99940.59;5080574;28;1133;-28
2023/04/25 05:25:52;;;;;;;;;;;;;;;24.92;32.63;99931.19;5088557;28;1085;-30
2023/04/25 05:28:55;;;;;;;;;;;;;;;24.32;33.33;99942.75;5048530;28;1090;-29
2023/04/25 05:31:53;;;;;;;;;;;;;;;27.21;28.70;99938.56;5040769;28;1254;-30
2023/04/25 05:34:19;;;;;;;;;;;;;;;27.25;28.78;99927.16;5072306;28;1157;-28
2023/04/25 05:37:03;;;;;;;;;;;;;;;25.06;32.01;99935.69;5079533;28;1983;-31
2023/04/25 05:39:30;;;;;;;;;;;;;;;24.46;33.01;99930.34;5079634;28;1138;-32
2023/04/25 05:42:06;;;;;;;;;;;;;;;26.64;29.63;99931.47;5084572;28;1081;-29
2023/04/25 05:45:07;;;;;;;;;;;;;;;24.54;32.32;99919.47;5068219;28;1348;-30
2023/04/25 05:47:51;;;;;;;;;;;;;;;24.66;32.36;99919.00;5079138;28;1137;-30
2023/04/25 05:50:46;;;;;;;;;;;;;;;25.10;31.75;99914.63;5073675;28;1564;-29
2023/04/25 05:53:38;;;;;;;;;;;;;;;25.26;31.50;99907.31;5062825;28;1162;-32
2023/04/25 05:56:05;;;;;;;;;;;;;;;25.65;30.59;99916.03;5077699;28;1893;-32
2023/04/25 05:58:30;;;;;;;;;;;;;;;26.46;29.63;99910.41;5078838;28;1142;-30
2023/04/25 06:00:58;;;;;;;;;;;;;;;26.17;29.98;99915.81;5080691;28;1430;-33
2023/04/25 06:03:23;;;;;;;;;;;;;;;26.16;30.42;99920.34;5079161;28;907;-32
2023/04/25 06:05:50;;;;;;;;;;;;;;;27.19;28.91;99917.19;5077728;28;1461;-33
2023/04/25 06:08:15;;;;;;;;;;;;;;;26.59;29.43;99904.25;5078102;28;1221;-38
2023/04/25 06:10:42;;;;;;;;;;;;;;;26.56;29.72;99905.47;5090105;28;1233;-35
2023/04/25 06:13:07;;;;;;;;;;;;;;;27.22;28.21;99902.41;5077614;28;1120;-38
2023/04/25 06:15:34;;;;;;;;;;;;;;;26.70;29.39;99905.53;5089564;28;1101;-30
2023/04/25 06:18:00;;;;;;;;;;;;;;;26.77;29.68;99887.53;5077175;28;1914;-30
2023/04/25 06:20:26;;;;;;;;;;;;;;;27.55;28.01;99895.41;5078872;28;1218;-35
2023/04/25 06:22:53;;;;;;;;;;;;;;;27.04;28.57;99893.06;5078767;28;1220;-33
2023/04/25 06:25:24;;;;;;;;;;;;;;;27.22;28.50;99895.16;5079494;28;1494;-30
2023/04/25 06:27:50;;;;;;;;;;;;;;;27.38;28.29;99888.53;5081548;28;1178;-36
2023/04/25 06:30:18;;;;;;;;;;;;;;;26.81;28.98;99887.97;5076957;28;1233;-31
2023/04/25 06:32:43;;;;;;;;;;;;;;;27.56;28.17;99897.09;5076491;28;1327;-36
2023/04/25 06:35:10;;;;;;;;;;;;;;;27.16;28.45;99895.97;5076805;28;1343;-33
2023/04/25 06:37:36;;;;;;;;;;;;;;;26.84;28.51;99891.06;5077190;28;1917;-31
2023/04/25 06:40:02;;;;;;;;;;;;;;;27.48;27.92;99898.09;5078060;28;1225;-34
2023/04/25 06:42:28;;;;;;;;;;;;;;;27.00;27.93;99884.50;5081708;28;1237;-30
2023/04/25 06:44:58;;;;;;;;;;;;;;;26.72;28.26;99873.81;5083513;28;1298;-34
2023/04/25 06:47:23;;;;;;;;;;;;;;;27.73;27.25;99878.59;5076884;28;1310;-35
2023/04/25 06:49:49;;;;;;;;;;;;;;;27.13;28.13;99885.56;5080547;28;1333;-33
2023/04/25 06:52:15;;;;;;;;;;;;;;;26.91;27.95;99883.00;5076889;28;1105;-34
2023/04/25 06:54:41;;;;;;;;;;;;;;;27.32;27.32;99881.25;5076774;28;1146;-38
2023/04/25 06:57:44;;;;;;;;;;;;;;;26.75;28.34;99871.53;5025932;28;1989;-35
2023/04/25 07:00:30;;;;;;;;;;;;;;;27.54;27.31;99875.69;5035469;28;1056;-31
2023/04/25 07:02:55;;;;;;;;;;;;;;;27.10;27.90;99873.34;5057543;28;2068;-35
2023/04/25 07:05:21;;;;;;;;;;;;;;;26.97;28.18;99875.97;5076236;28;1114;-32
2023/04/25 07:07:47;;;;;;;;;;;;;;;27.55;26.93;99871.94;5081326;28;1284;-31
2023/04/25 07:10:12;;;;;;;;;;;;;;;26.94;27.88;99874.50;5078962;28;1305;-36
2023/04/25 07:12:38;;;;;;;;;;;;;;;26.84;27.51;99872.16;5076331;28;1146;-34
2023/04/25 07:15:05;;;;;;;;;;;;;;;27.36;26.88;99877.09;5088408;28;1152;-33
2023/04/25 07:17:32;;;;;;;;;;;;;;;27.17;27.71;99867.94;5076263;28;1913;-28
2023/04/25 07:19:58;;;;;;;;;;;;;;;27.06;27.73;99863.16;5075756;28;1461;-33
2023/04/25 07:22:24;;;;;;;;;;;;;;;27.34;26.71;99867.56;5080760;28;1174;-31
2023/04/25 07:24:50;;;;;;;;;;;;;;;27.03;27.43;99867.06;5078333;28;1201;-36
2023/04/25 07:27:18;;;;;;;;;;;;;;;27.25;27.52;99858.81;5081902;28;1205;-33
2023/04/25 07:30:03;;;;;;;;;;;;;;;27.05;27.37;99859.63;5077548;28;1315;-29
2023/04/25 07:32:29;;;;;;;;;;;;;;;26.98;27.47;99846.06;5097595;28;1173;-31
2023/04/25 07:34:55;;;;;;;;;;;;;;;27.51;26.84;99858.00;5079807;28;1118;-35
2023/04/25 07:37:21;;;;;;;;;;;;;;;27.05;27.09;99840.72;5079203;28;1907;-33
2023/04/25 07:40:06;;;;;;;;;;;;;;;27.04;27.40;99838.22;5092020;28;1135;-31
2023/04/25 07:42:32;;;;;;;;;;;;;;;27.52;26.76;99842.63;5097274;28;1038;-29
2023/04/25 07:44:57;;;;;;;;;;;;;;;27.24;27.21;99839.06;5078554;28;1349;-37
2023/04/25 07:47:23;;;;;;;;;;;;;;;27.17;27.58;99842.81;5079451;28;1115;-35
2023/04/25 07:49:49;;;;;;;;;;;;;;;27.46;26.80;99832.66;5079501;28;1234;-29
2023/04/25 07:52:15;;;;;;;;;;;;;;;27.33;27.47;99831.59;5085102;28;1306;-33
2023/04/25 07:54:47;;;;;;;;;;;;;;;27.39;27.48;99825.38;5079353;28;1353;-32
2023/04/25 07:57:18;;;;;;;;;;;;;;;27.59;26.95;99826.44;5078676;28;1906;-33
2023/04/25 07:59:45;;;;;;;;;;;;;;;27.33;27.35;99822.66;5078153;28;1226;-33
2023/04/25 08:02:12;;;;;;;;;;;;;;;27.74;26.93;99823.53;5089300;28;1359;-31
2023/04/25 08:04:38;;;;;;;;;;;;;;;27.51;27.12;99831.00;5087707;28;1333;-32
2023/04/25 08:07:07;;;;;;;;;;;;;;;27.23;27.29;99832.03;5085107;28;1403;-30
2023/04/25 08:09:48;;;;;;;;;;;;;;;27.69;26.68;99834.97;5096954;28;1067;-30
2023/04/25 08:12:22;;;;;;;;;;;;;;;27.29;27.37;99835.78;5078703;28;1258;-32
2023/04/25 08:14:48;;;;;;;;;;;;;;;27.22;27.26;99835.78;5084852;28;1272;-30
2023/04/25 08:17:13;;;;;;;;;;;;;;;27.78;26.36;99840.16;5082232;28;2038;-29
2023/04/25 08:19:40;;;;;;;;;;;;;;;27.17;27.04;99840.94;5096962;28;1058;-31
2023/04/25 08:22:12;;;;;;;;;;;;;;;27.26;27.58;99844.25;5085375;28;1153;-34
2023/04/25 08:24:47;;;;;;;;;;;;;;;27.45;26.60;99847.19;5079159;28;1217;-34
2023/04/25 08:27:13;;;;;;;;;;;;;;;27.17;27.42;99849.06;5078234;28;1217;-34
2023/04/25 08:29:39;;;;;;;;;;;;;;;27.51;26.84;99843.66;5078998;28;1255;-34
2023/04/25 08:32:05;;;;;;;;;;;;;;;27.31;26.82;99841.78;5078516;28;1331;-31
2023/04/25 08:34:33;;;;;;;;;;;;;;;27.16;27.01;99850.06;5078561;28;1229;-35
2023/04/25 08:37:04;;;;;;;;;;;;;;;27.78;26.81;99853.69;5096414;28;1898;-34
2023/04/25 08:39:52;;;;;;;;;;;;;;;27.25;27.38;99850.72;5096120;28;1113;-31
2023/04/25 08:42:49;;;;;;;;;;;;;;;27.37;27.05;99846.38;5080276;28;1468;-33
2023/04/25 08:45:15;;;;;;;;;;;;;;;27.69;26.38;99842.25;5069529;28;1234;-30
2023/04/25 08:47:42;;;;;;;;;;;;;;;27.33;27.55;99846.97;5084455;28;1110;-32
2023/04/25 08:50:08;;;;;;;;;;;;;;;27.66;26.89;99840.75;5078892;28;1326;-30
2023/04/25 08:52:38;;;;;;;;;;;;;;;27.66;27.15;99851.53;5082036;28;1592;-32
2023/04/25 08:55:04;;;;;;;;;;;;;;;27.57;27.24;99853.66;5083680;28;1665;-35
2023/04/25 08:57:31;;;;;;;;;;;;;;;27.79;27.05;99856.16;5081232;28;1979;-36
2023/04/25 08:59:57;;;;;;;;;;;;;;;27.65;27.44;99844.50;5102995;28;1245;-38
2023/04/25 09:02:24;;;;;;;;;;;;;;;27.57;27.83;99858.22;5092952;28;1412;-36
2023/04/25 09:04:50;;;;;;;;;;;;;;;28.06;27.16;99847.19;5089290;28;1271;-30
2023/04/25 09:07:18;;;;;;;;;;;;;;;27.89;27.09;99855.72;5082362;28;1074;-34
2023/04/25 09:09:44;;;;;;;;;;;;;;;27.59;27.65;99850.75;5082380;28;1210;-32
2023/04/25 09:12:09;;;;;;;;;;;;;;;28.07;27.22;99843.41;5082244;28;1063;-31
2023/04/25 09:14:35;;;;;;;;;;;;;;;27.78;27.39;99840.16;5082866;28;1123;-34
2023/04/25 09:17:21;;;;;;;;;;;;;;;27.66;27.37;99838.03;5106421;28;1910;-31
2023/04/25 09:19:50;;;;;;;;;;;;;;;28.08;27.06;99835.09;5081934;28;1353;-33
2023/04/25 09:22:30;;;;;;;;;;;;;;;27.83;27.44;99833.06;5090558;28;1412;-35
2023/04/25 09:24:55;;;;;;;;;;;;;;;27.96;27.71;99834.91;5090520;28;1271;-30
2023/04/25 09:27:26;;;;;;;;;;;;;;;28.06;27.11;99830.97;5087145;28;1425;-32
2023/04/25 09:30:13;;;;;;;;;;;;;;;27.86;27.86;99842.66;5081600;28;1369;-30
2023/04/25 09:32:56;;;;;;;;;;;;;;;28.12;27.55;99832.81;5083096;28;1358;-32
2023/04/25 09:35:26;;;;;;;;;;;;;;;27.92;27.72;99835.56;5083734;28;1134;-32
2023/04/25 09:37:52;;;;;;;;;;;;;;;27.74;27.69;99831.63;5092271;28;1909;-32
2023/04/25 09:40:40;;;;;;;;;;;;;;;28.13;27.06;99828.25;5093913;28;1174;-30
2023/04/25 09:43:22;;;;;;;;;;;;;;;27.89;27.48;99826.00;5088193;28;1361;-34
2023/04/25 09:45:51;;;;;;;;;;;;;;;27.93;27.71;99819.13;5093099;28;1359;-32
2023/04/25 09:48:19;;;;;;;;;;;;;;;28.09;27.12;99825.94;5099896;28;996;-33
2023/04/25 09:51:06;;;;;;;;;;;;;;;27.87;27.61;99826.22;5081564;28;1163;-36
2023/04/25 09:53:39;;;;;;;;;;;;;;;28.23;27.60;99815.91;5089804;28;1219;-35
2023/04/25 09:56:20;;;;;;;;;;;;;;;27.88;27.79;99813.50;5081789;28;2047;-31
2023/04/25 09:58:47;;;;;;;;;;;;;;;27.94;27.73;99817.25;5079396;28;1453;-33
2023/04/25 10:01:13;;;;;;;;;;;;;;;28.16;27.42;99809.69;5097869;28;1205;-32
2023/04/25 10:03:51;;;;;;;;;;;;;;;27.91;27.70;99806.88;5088947;28;1269;-33
2023/04/25 10:06:38;;;;;;;;;;;;;;;27.98;27.80;99807.66;5075270;28;1424;-34
2023/04/25 10:09:04;;;;;;;;;;;;;;;28.05;27.34;99803.09;5104134;28;1066;-29
2023/04/25 10:11:30;;;;;;;;;;;;;;;27.98;27.57;99788.75;5081224;28;1087;-34
2023/04/25 10:13:55;;;;;;;;;;;;;;;28.01;27.66;99793.72;5099548;28;1201;-33
2023/04/25 10:16:21;;;;;;;;;;;;;;;28.15;27.58;99789.13;5103846;28;1981;-29
2023/04/25 10:18:46;;;;;;;;;;;;;;;28.13;27.22;99779.56;5113263;28;1327;-32
2023/04/25 10:21:12;;;;;;;;;;;;;;;28.09;27.62;99782.69;5101457;28;1162;-35
2023/04/25 10:23:37;;;;;;;;;;;;;;;28.22;27.11;99784.53;5101814;28;1029;-31
2023/04/25 10:26:03;;;;;;;;;;;;;;;28.13;27.36;99777.69;5098766;28;1058;-33
2023/04/25 10:28:28;;;;;;;;;;;;;;;28.04;27.46;99763.59;5088084;28;1210;-31
2023/04/25 10:30:57;;;;;;;;;;;;;;;28.23;27.28;99767.25;5099054;28;1236;-30
2023/04/25 10:33:29;;;;;;;;;;;;;;;28.13;27.20;99761.47;5098900;28;1106;-32
2023/04/25 10:35:55;;;;;;;;;;;;;;;28.19;27.28;99760.63;5098560;28;1150;-30
2023/04/25 10:38:20;;;;;;;;;;;;;;;28.37;27.21;99759.09;5080309;28;1905;-32
2023/04/25 10:41:12;;;;;;;;;;;;;;;28.28;27.36;99749.56;5100562;28;895;-31
2023/04/25 10:43:41;;;;;;;;;;;;;;;28.23;27.52;99750.19;5095748;28;1191;-32
2023/04/25 10:46:13;;;;;;;;;;;;;;;28.40;27.17;99747.00;5099336;28;1331;-33
2023/04/25 10:48:38;;;;;;;;;;;;;;;28.34;27.25;99743.31;5109562;28;1118;-29
2023/04/25 10:51:10;;;;;;;;;;;;;;;28.29;27.06;99746.63;5080334;28;1487;-31
2023/04/25 10:53:36;;;;;;;;;;;;;;;28.29;27.48;99741.22;5107846;28;941;-33
2023/04/25 10:56:11;;;;;;;;;;;;;;;28.31;26.90;99741.00;5097909;28;1042;-34
2023/04/25 10:58:41;;;;;;;;;;;;;;;28.36;27.25;99739.34;5098590;28;1905;-34
2023/04/25 11:01:06;;;;;;;;;;;;;;;28.24;27.39;99744.56;5098721;28;1054;-34
2023/04/25 11:03:32;;;;;;;;;;;;;;;28.28;27.32;99734.13;5100046;28;1074;-30
2023/04/25 11:05:57;;;;;;;;;;;;;;;28.33;27.13;99737.06;5102133;28;1042;-32
2023/04/25 11:08:28;;;;;;;;;;;;;;;28.30;27.23;99725.81;5080402;28;1036;-30
2023/04/25 11:10:53;;;;;;;;;;;;;;;28.39;27.05;99732.69;5098110;28;1118;-31
2023/04/25 11:13:20;;;;;;;;;;;;;;;28.26;27.49;99735.41;5079906;28;1530;-31
2023/04/25 11:15:50;;;;;;;;;;;;;;;28.36;27.06;99738.53;5100149;28;1074;-32
2023/04/25 11:18:16;;;;;;;;;;;;;;;28.29;26.94;99716.88;5089221;28;1917;-34
2023/04/25 11:20:43;;;;;;;;;;;;;;;28.36;27.36;99723.09;5097830;28;1062;-30
2023/04/25 11:23:08;;;;;;;;;;;;;;;28.42;27.31;99721.41;5105628;28;1162;-29
2023/04/25 11:25:34;;;;;;;;;;;;;;;28.43;27.43;99720.38;5097777;28;1071;-33
2023/04/25 11:28:03;;;;;;;;;;;;;;;28.47;27.33;99726.19;5101602;28;1030;-32
2023/04/25 11:30:30;;;;;;;;;;;;;;;28.46;27.37;99724.53;5099880;28;1089;-36
2023/04/25 11:32:56;;;;;;;;;;;;;;;28.41;27.74;99727.06;5097827;28;1085;-32
2023/04/25 11:35:22;;;;;;;;;;;;;;;28.36;27.45;99731.22;5097809;28;1154;-33
2023/04/25 11:37:48;;;;;;;;;;;;;;;28.46;27.38;99724.53;5107050;28;1906;-36
2023/04/25 11:40:14;;;;;;;;;;;;;;;28.39;27.65;99723.72;5104402;28;1128;-33
2023/04/25 11:42:43;;;;;;;;;;;;;;;28.47;27.56;99727.00;5097709;28;1193;-30
2023/04/25 11:45:09;;;;;;;;;;;;;;;28.47;27.31;99718.91;5097391;28;1139;-33
2023/04/25 11:47:35;;;;;;;;;;;;;;;28.39;27.75;99724.56;5097343;28;1014;-29
2023/04/25 11:50:01;;;;;;;;;;;;;;;28.47;27.73;99723.47;5097236;28;1539;-30
2023/04/25 11:52:42;;;;;;;;;;;;;;;28.37;27.41;99713.13;5103260;28;1137;-32
2023/04/25 11:55:14;;;;;;;;;;;;;;;28.40;27.47;99706.44;5098634;28;1046;-34
2023/04/25 11:57:40;;;;;;;;;;;;;;;28.63;27.37;99708.59;5096909;28;1910;-31
2023/04/25 12:00:13;;;;;;;;;;;;;;;28.50;27.61;99706.81;5097472;28;1117;-33
2023/04/25 12:02:45;;;;;;;;;;;;;;;28.33;27.65;99690.25;5097004;28;1074;-31
2023/04/25 12:05:11;;;;;;;;;;;;;;;28.40;27.76;99693.75;5098970;28;855;-33
2023/04/25 12:07:37;;;;;;;;;;;;;;;28.24;28.02;99686.97;5096952;28;1160;-31
2023/04/25 12:10:10;;;;;;;;;;;;;;;28.13;28.33;99688.47;5097055;28;1126;-32
2023/04/25 12:12:35;;;;;;;;;;;;;;;28.32;28.35;99683.16;5097694;28;1136;-31
2023/04/25 12:15:10;;;;;;;;;;;;;;;28.34;28.16;99691.94;5097268;28;1166;-31
2023/04/25 12:17:37;;;;;;;;;;;;;;;27.77;28.63;99677.19;5100925;28;1970;-31
2023/04/25 12:20:07;;;;;;;;;;;;;;;28.01;28.27;99685.59;5096944;28;1150;-30
2023/04/25 12:22:33;;;;;;;;;;;;;;;27.86;28.14;99680.50;5104187;28;1138;-31
2023/04/25 12:24:58;;;;;;;;;;;;;;;27.55;28.28;99682.84;5097035;28;1146;-34
2023/04/25 12:27:24;;;;;;;;;;;;;;;27.89;27.73;99674.66;5096890;28;1160;-30
2023/04/25 12:29:56;;;;;;;;;;;;;;;27.50;27.71;99675.38;5078837;28;1583;-34
2023/04/25 12:32:21;;;;;;;;;;;;;;;27.07;27.55;99682.09;5097094;28;750;-33
2023/04/25 12:34:47;;;;;;;;;;;;;;;27.14;27.22;99682.09;5096589;28;1094;-34
2023/04/25 12:37:13;;;;;;;;;;;;;;;26.08;28.38;99679.81;5096680;28;1902;-30
2023/04/25 12:39:38;;;;;;;;;;;;;;;26.06;28.54;99676.50;5096900;28;1142;-29
2023/04/25 12:42:04;;;;;;;;;;;;;;;26.13;28.61;99690.81;5103523;28;840;-32
2023/04/25 12:44:29;;;;;;;;;;;;;;;25.46;29.80;99684.06;5096747;28;1156;-32
2023/04/25 12:46:55;;;;;;;;;;;;;;;25.56;29.89;99681.84;5096563;28;1165;-31
2023/04/25 12:49:20;;;;;;;;;;;;;;;25.83;29.05;99683.03;5098503;28;1542;-29
2023/04/25 12:51:46;;;;;;;;;;;;;;;25.40;29.98;99669.53;5104415;28;1272;-35
2023/04/25 12:54:12;;;;;;;;;;;;;;;26.02;30.05;99678.78;5106902;28;952;-31
2023/04/25 12:56:37;;;;;;;;;;;;;;;26.23;29.01;99677.78;5100247;28;1975;-32
2023/04/25 12:59:03;;;;;;;;;;;;;;;25.62;30.34;99671.31;5096669;28;1138;-33
2023/04/25 13:01:28;;;;;;;;;;;;;;;26.01;29.53;99664.44;5096415;28;1098;-31
2023/04/25 13:03:54;;;;;;;;;;;;;;;25.90;30.05;99662.34;5096225;28;1221;-34
2023/04/25 13:06:20;;;;;;;;;;;;;;;26.15;30.41;99665.34;5106591;28;1165;-30
2023/04/25 13:08:45;;;;;;;;;;;;;;;27.23;28.00;99670.03;5096628;28;1046;-33